Time;durP1;ratioP1;P1;durP2;ratioP2;P2;SDS_P1;SDS_P2;PMS_P1;PMS_P2;Temp;Humidity;BMP_temperature;BMP_pressure;BME280_temperature;BME280_humidity;BME280_pressure;Samples;Min_cycle;Max_cycle;Signal;HPM_P1;HPM_P2
2021/04/26 00:00:17;;;;;;;4.72;3.10;;;5.30;86.30;;;;;;5045524;28;20700;-74
2021/04/26 00:02:43;;;;;;;4.15;2.95;;;5.30;87.10;;;;;;5053009;28;20203;-73
2021/04/26 00:05:11;;;;;;;4.72;3.13;;;5.30;86.50;;;;;;5052969;28;20224;-73
2021/04/26 00:07:37;;;;;;;3.53;2.40;;;5.30;86.40;;;;;;5048658;28;20217;-72
2021/04/26 00:10:04;;;;;;;3.78;2.63;;;5.30;86.60;;;;;;5046241;28;20228;-73
2021/04/26 00:12:33;;;;;;;3.45;2.58;;;5.30;86.40;;;;;;5047856;28;20201;-73
2021/04/26 00:15:00;;;;;;;8.00;3.00;;;5.40;86.10;;;;;;5056708;28;20672;-73
2021/04/26 00:17:26;;;;;;;4.47;2.60;;;5.40;85.40;;;;;;5060600;28;20691;-73
2021/04/26 00:19:52;;;;;;;3.42;2.65;;;5.50;85.70;;;;;;5038165;28;20270;-74
2021/04/26 00:22:18;;;;;;;6.15;3.05;;;5.50;85.50;;;;;;5041608;28;20579;-73
2021/04/26 00:24:44;;;;;;;7.35;2.75;;;5.60;85.00;;;;;;5049595;28;20583;-74
2021/04/26 00:27:11;;;;;;;3.85;2.67;;;5.70;85.20;;;;;;5048156;28;20205;-73
2021/04/26 00:29:37;;;;;;;7.22;2.70;;;5.70;85.30;;;;;;5045514;28;20217;-74
2021/04/26 00:32:04;;;;;;;3.00;2.60;;;5.70;84.90;;;;;;5047309;28;20688;-74
2021/04/26 00:34:30;;;;;;;5.25;2.55;;;5.70;84.80;;;;;;5048446;28;20197;-73
2021/04/26 00:36:57;;;;;;;4.80;2.45;;;5.70;85.30;;;;;;5048885;28;20213;-74
2021/04/26 00:39:23;;;;;;;5.63;3.17;;;5.70;85.70;;;;;;5049257;28;20231;-74
2021/04/26 00:41:50;;;;;;;4.05;2.80;;;5.70;85.50;;;;;;5067167;28;20207;-74
2021/04/26 00:44:16;;;;;;;4.47;2.63;;;5.70;85.40;;;;;;5067052;28;20215;-73
2021/04/26 00:46:42;;;;;;;3.97;2.83;;;5.70;85.90;;;;;;5067250;28;20229;-74
2021/04/26 00:49:09;;;;;;;5.63;2.70;;;5.70;86.40;;;;;;5064300;28;20263;-74
2021/04/26 00:51:35;;;;;;;3.63;2.88;;;5.70;86.50;;;;;;5046350;28;20229;-73
2021/04/26 00:54:02;;;;;;;3.67;3.30;;;5.60;86.00;;;;;;5046470;28;20699;-73
2021/04/26 00:56:28;;;;;;;6.72;3.25;;;5.60;86.40;;;;;;5060120;28;20208;-73
2021/04/26 00:58:55;;;;;;;4.93;2.95;;;5.50;86.50;;;;;;5053046;28;20317;-72
2021/04/26 01:01:22;;;;;;;4.55;3.13;;;5.50;86.50;;;;;;5045114;28;20633;-73
2021/04/26 01:03:48;;;;;;;5.28;2.50;;;5.60;86.50;;;;;;5052308;28;20891;-73
2021/04/26 01:06:15;;;;;;;4.13;3.25;;;5.60;86.30;;;;;;5066694;28;20252;-73
2021/04/26 01:08:41;;;;;;;3.20;2.47;;;5.50;86.90;;;;;;5067584;28;20638;-74
2021/04/26 01:11:08;;;;;;;3.38;2.90;;;5.50;87.10;;;;;;5065524;28;20564;-74
2021/04/26 01:13:43;;;;;;;2.90;2.60;;;5.50;87.30;;;;;;5068172;28;20215;-73
2021/04/26 01:16:15;;;;;;;4.57;3.22;;;5.50;86.90;;;;;;5067809;28;20207;-74
2021/04/26 01:18:53;;;;;;;4.15;2.72;;;5.40;87.00;;;;;;5067690;28;20231;-74
2021/04/26 01:22:10;;;;;;;3.50;2.80;;;5.40;87.70;;;;;;5065854;28;20206;-73
2021/04/26 01:24:50;;;;;;;2.58;2.38;;;5.40;87.80;;;;;;5019549;28;20207;-73
2021/04/26 01:27:26;;;;;;;4.05;2.78;;;5.40;87.70;;;;;;5067822;28;20269;-73
2021/04/26 01:30:12;;;;;;;5.72;3.42;;;5.40;88.10;;;;;;5065347;28;20224;-73
2021/04/26 01:32:43;;;;;;;2.80;2.40;;;5.20;89.40;;;;;;5050006;28;20734;-73
2021/04/26 01:35:12;;;;;;;4.18;3.20;;;5.20;89.20;;;;;;5047462;28;20664;-73
2021/04/26 01:37:39;;;;;;;4.20;2.72;;;5.10;89.80;;;;;;5047379;28;20224;-73
2021/04/26 01:40:09;;;;;;;5.05;2.80;;;5.00;90.00;;;;;;5045619;28;20228;-73
2021/04/26 01:42:38;;;;;;;10.38;3.05;;;4.90;90.10;;;;;;5047779;28;20199;-73
2021/04/26 01:45:07;;;;;;;3.45;3.10;;;4.80;90.30;;;;;;5047151;28;20220;-73
2021/04/26 01:47:34;;;;;;;5.18;3.03;;;4.80;90.40;;;;;;5047506;28;20197;-73
2021/04/26 01:50:03;;;;;;;3.53;3.25;;;4.60;90.40;;;;;;5045047;28;20275;-73
2021/04/26 01:52:30;;;;;;;4.93;3.78;;;4.50;90.60;;;;;;5047515;28;20207;-73
2021/04/26 01:54:57;;;;;;;3.25;2.60;;;4.40;90.90;;;;;;5047595;28;20679;-73
2021/04/26 01:57:24;;;;;;;7.60;3.35;;;4.40;91.00;;;;;;5047807;28;20205;-73
2021/04/26 01:59:51;;;;;;;5.35;3.30;;;4.30;91.10;;;;;;5049247;28;20220;-73
2021/04/26 02:02:17;;;;;;;5.20;3.70;;;4.20;91.30;;;;;;5066875;28;20722;-72
2021/04/26 02:04:44;;;;;;;4.80;3.28;;;4.20;91.50;;;;;;5061480;28;20212;-72
2021/04/26 02:07:13;;;;;;;4.35;3.50;;;4.10;91.60;;;;;;5047380;28;20205;-72
2021/04/26 02:09:41;;;;;;;5.50;3.08;;;4.10;91.70;;;;;;5045279;28;20232;-72
2021/04/26 02:12:09;;;;;;;5.63;3.40;;;4.10;91.90;;;;;;5046347;28;20624;-72
2021/04/26 02:14:36;;;;;;;3.30;3.00;;;4.00;92.10;;;;;;5046709;28;20209;-73
2021/04/26 02:17:03;;;;;;;5.13;3.15;;;4.00;92.20;;;;;;5046647;28;20209;-73
2021/04/26 02:19:30;;;;;;;3.28;2.97;;;4.00;92.30;;;;;;5044762;28;20240;-72
2021/04/26 02:21:56;;;;;;;3.50;3.20;;;3.90;92.50;;;;;;5046101;28;20204;-72
2021/04/26 02:24:23;;;;;;;10.63;3.95;;;4.00;92.80;;;;;;5046793;28;20668;-72
2021/04/26 02:26:50;;;;;;;3.95;3.55;;;4.00;92.90;;;;;;5046630;28;20225;-73
2021/04/26 02:29:16;;;;;;;4.35;3.10;;;4.00;93.00;;;;;;5044588;28;20991;-73
2021/04/26 02:31:45;;;;;;;4.55;3.50;;;4.00;93.00;;;;;;5046382;28;20672;-73
2021/04/26 02:34:19;;;;;;;5.57;3.42;;;4.00;93.10;;;;;;5038000;28;20205;-72
2021/04/26 02:36:51;;;;;;;7.20;4.20;;;4.00;93.40;;;;;;5046355;28;20212;-73
2021/04/26 02:39:18;;;;;;;6.25;3.85;;;4.00;93.50;;;;;;5045676;28;20279;-74
2021/04/26 02:41:47;;;;;;;7.22;4.05;;;4.00;93.80;;;;;;5045998;28;20272;-73
2021/04/26 02:44:19;;;;;;;6.10;3.85;;;4.00;93.60;;;;;;5046785;28;20205;-73
2021/04/26 02:46:46;;;;;;;6.55;3.60;;;4.00;93.90;;;;;;5060470;28;20282;-73
2021/04/26 02:49:13;;;;;;;4.43;3.35;;;4.00;93.60;;;;;;5060744;28;20270;-74
2021/04/26 02:51:40;;;;;;;8.30;4.10;;;4.00;93.80;;;;;;5046235;28;20201;-72
2021/04/26 02:54:07;;;;;;;8.02;5.57;;;3.90;93.80;;;;;;5045797;28;20263;-72
2021/04/26 02:56:36;;;;;;;7.80;3.90;;;3.90;93.90;;;;;;5046583;28;20204;-73
2021/04/26 02:59:06;;;;;;;6.13;3.58;;;3.80;94.30;;;;;;5051919;28;20282;-73
2021/04/26 03:01:32;;;;;;;4.82;3.80;;;3.80;94.00;;;;;;5045946;28;20306;-73
2021/04/26 03:03:59;;;;;;;4.38;3.65;;;3.70;94.10;;;;;;5046975;28;20263;-72
2021/04/26 03:06:25;;;;;;;7.95;3.90;;;3.70;94.10;;;;;;5046634;28;20654;-72
2021/04/26 03:08:52;;;;;;;6.97;4.40;;;3.70;94.30;;;;;;5045855;28;20731;-72
2021/04/26 03:11:20;;;;;;;8.18;4.85;;;3.70;94.40;;;;;;5043890;28;20216;-72
2021/04/26 03:13:48;;;;;;;6.63;4.50;;;3.70;94.60;;;;;;5048310;28;20212;-73
2021/04/26 03:16:15;;;;;;;4.53;4.00;;;3.80;94.90;;;;;;5049796;28;20664;-72
2021/04/26 03:18:42;;;;;;;5.47;4.25;;;3.80;95.00;;;;;;5049863;28;20225;-73
2021/04/26 03:21:10;;;;;;;5.90;4.43;;;3.80;95.00;;;;;;5057934;28;20200;-73
2021/04/26 03:23:37;;;;;;;7.20;4.60;;;3.80;95.00;;;;;;5069661;28;20207;-72
2021/04/26 03:26:06;;;;;;;5.97;4.25;;;3.80;94.70;;;;;;5069262;28;20224;-73
2021/04/26 03:28:34;;;;;;;5.72;4.25;;;3.80;95.10;;;;;;5069817;28;20239;-73
2021/04/26 03:31:02;;;;;;;4.70;3.88;;;3.80;95.00;;;;;;5063793;28;20220;-73
2021/04/26 03:33:30;;;;;;;6.35;4.38;;;3.70;95.30;;;;;;5037460;28;20205;-75
2021/04/26 03:35:56;;;;;;;5.85;4.28;;;3.70;95.20;;;;;;5049398;28;20577;-74
2021/04/26 03:38:24;;;;;;;6.95;4.53;;;3.60;95.30;;;;;;5050035;28;20205;-71
2021/04/26 03:40:50;;;;;;;5.60;4.57;;;3.60;95.30;;;;;;5048439;28;20212;-72
2021/04/26 03:43:17;;;;;;;7.82;4.40;;;3.60;95.20;;;;;;5050164;28;20213;-71
2021/04/26 03:45:44;;;;;;;5.88;4.30;;;3.60;95.20;;;;;;5048918;28;20217;-72
2021/04/26 03:48:11;;;;;;;7.30;5.15;;;3.60;95.30;;;;;;5051172;28;20274;-72
2021/04/26 03:50:38;;;;;;;10.48;6.05;;;3.60;95.50;;;;;;5047240;28;20212;-72
2021/04/26 03:53:04;;;;;;;9.52;5.10;;;3.50;95.70;;;;;;5048996;28;20208;-71
2021/04/26 03:55:30;;;;;;;7.50;4.60;;;3.60;95.40;;;;;;5048929;28;20193;-70
2021/04/26 03:57:57;;;;;;;4.45;3.85;;;3.50;95.70;;;;;;5048555;28;20572;-73
2021/04/26 04:00:24;;;;;;;6.78;3.88;;;3.40;96.10;;;;;;5051695;28;20221;-70
2021/04/26 04:02:51;;;;;;;5.20;4.60;;;3.30;96.10;;;;;;5038385;28;20189;-72
2021/04/26 04:05:18;;;;;;;7.88;5.00;;;3.20;96.50;;;;;;5040077;28;20723;-71
2021/04/26 04:07:46;;;;;;;5.40;4.22;;;3.10;96.60;;;;;;5040908;28;20194;-73
2021/04/26 04:10:14;;;;;;;9.38;4.10;;;3.10;96.60;;;;;;5039232;28;20217;-68
2021/04/26 04:12:40;;;;;;;9.05;4.40;;;3.10;96.60;;;;;;5044960;28;20197;-69
2021/04/26 04:15:08;;;;;;;4.40;3.80;;;3.20;96.60;;;;;;5054694;28;20718;-69
2021/04/26 04:17:34;;;;;;;5.40;4.80;;;3.10;97.00;;;;;;5045634;28;20232;-68
2021/04/26 04:20:00;;;;;;;5.22;4.63;;;3.10;97.00;;;;;;5043463;28;20225;-68
2021/04/26 04:22:26;;;;;;;8.25;5.30;;;3.10;96.90;;;;;;5046263;28;20205;-68
2021/04/26 04:24:54;;;;;;;6.70;4.50;;;3.20;96.60;;;;;;5043908;28;20205;-68
2021/04/26 04:27:20;;;;;;;7.90;5.22;;;3.20;96.40;;;;;;5046547;28;20288;-67
2021/04/26 04:29:46;;;;;;;6.70;4.75;;;3.30;96.30;;;;;;5051501;28;20220;-68
2021/04/26 04:32:12;;;;;;;7.88;4.70;;;3.30;96.00;;;;;;5066362;28;20212;-66
2021/04/26 04:34:39;;;;;;;9.43;5.30;;;3.40;96.00;;;;;;5060037;28;20201;-69
2021/04/26 04:37:05;;;;;;;8.23;4.85;;;3.40;95.60;;;;;;5047004;28;20197;-70
2021/04/26 04:39:31;;;;;;;5.25;4.55;;;3.40;95.30;;;;;;5047527;28;20285;-69
2021/04/26 04:41:59;;;;;;;7.55;5.32;;;3.50;95.30;;;;;;5057462;28;20223;-69
2021/04/26 04:44:25;;;;;;;5.50;4.32;;;3.50;95.20;;;;;;5068067;28;20593;-68
2021/04/26 04:46:51;;;;;;;6.50;5.03;;;3.50;95.10;;;;;;5067117;28;20232;-68
2021/04/26 04:49:17;;;;;;;7.95;4.78;;;3.60;95.10;;;;;;5064625;28;20782;-69
2021/04/26 04:51:44;;;;;;;10.55;4.72;;;3.70;94.80;;;;;;5047291;28;20213;-69
2021/04/26 04:54:10;;;;;;;4.45;4.05;;;3.70;94.80;;;;;;5118660;22;20738;-71
2021/04/26 04:56:38;;;;;;;7.75;5.50;;;3.70;94.60;;;;;;5087442;28;20251;-71
2021/04/26 04:59:06;;;;;;;7.68;4.55;;;3.70;94.60;;;;;;5077804;28;20771;-71
2021/04/26 05:01:32;;;;;;;6.70;4.55;;;3.70;94.50;;;;;;5066593;28;20633;-70
2021/04/26 05:03:58;;;;;;;7.45;4.47;;;3.80;94.60;;;;;;5067020;28;20838;-72
2021/04/26 05:06:25;;;;;;;5.57;4.50;;;3.80;94.40;;;;;;5067259;28;20232;-72
2021/04/26 05:08:52;;;;;;;6.20;4.85;;;3.90;94.30;;;;;;5067194;28;20754;-72
2021/04/26 05:11:18;;;;;;;7.72;5.35;;;3.90;94.30;;;;;;5065323;28;20583;-72
2021/04/26 05:13:44;;;;;;;6.00;4.35;;;3.90;94.20;;;;;;5066725;28;20204;-72
2021/04/26 05:16:12;;;;;;;6.00;4.43;;;3.90;94.00;;;;;;5067329;28;20287;-72
2021/04/26 05:18:38;;;;;;;6.50;4.57;;;4.00;93.90;;;;;;5067302;28;20952;-72
2021/04/26 05:21:05;;;;;;;7.35;4.53;;;4.00;93.70;;;;;;5064792;28;20200;-72
2021/04/26 05:23:31;;;;;;;6.05;4.10;;;4.10;93.50;;;;;;5066948;28;20200;-72
2021/04/26 05:25:58;;;;;;;4.20;3.83;;;4.20;92.80;;;;;;5067171;28;20227;-71
2021/04/26 05:28:24;;;;;;;5.13;4.60;;;4.30;92.80;;;;;;5066988;28;20579;-71
2021/04/26 05:30:50;;;;;;;5.18;4.45;;;4.40;92.70;;;;;;5063926;28;20660;-71
2021/04/26 05:33:17;;;;;;;7.30;4.93;;;4.50;92.70;;;;;;5065485;28;20231;-71
2021/04/26 05:35:44;;;;;;;6.35;4.25;;;4.60;92.30;;;;;;5065971;28;20200;-71
2021/04/26 05:38:12;;;;;;;7.97;4.53;;;4.80;92.40;;;;;;5067042;28;20228;-71
2021/04/26 05:40:39;;;;;;;8.38;4.57;;;4.80;92.10;;;;;;5064490;28;20233;-71
2021/04/26 05:43:07;;;;;;;7.32;4.30;;;4.90;91.80;;;;;;5066946;28;20227;-71
2021/04/26 05:45:33;;;;;;;7.00;4.60;;;5.00;91.60;;;;;;5066409;28;20218;-71
2021/04/26 05:47:59;;;;;;;7.50;4.32;;;5.00;91.40;;;;;;5070745;28;20223;-71
2021/04/26 05:50:26;;;;;;;5.60;4.00;;;5.10;91.10;;;;;;5066972;28;20621;-71
2021/04/26 05:52:54;;;;;;;6.82;4.55;;;5.30;91.20;;;;;;5066053;28;20196;-71
2021/04/26 05:55:21;;;;;;;5.75;4.30;;;5.40;91.20;;;;;;5066641;28;20216;-71
2021/04/26 05:57:47;;;;;;;4.90;3.80;;;5.50;91.20;;;;;;5066725;28;20582;-71
2021/04/26 06:00:14;;;;;;;7.15;4.25;;;5.60;90.40;;;;;;5064446;28;20235;-71
2021/04/26 06:02:40;;;;;;;4.50;4.10;;;5.70;90.50;;;;;;5065437;28;20200;-71
2021/04/26 06:05:08;;;;;;;7.18;4.45;;;5.80;90.00;;;;;;5065506;28;20679;-71
2021/04/26 06:07:35;;;;;;;5.70;4.35;;;5.80;90.20;;;;;;5065496;28;20687;-71
2021/04/26 06:10:03;;;;;;;6.70;4.97;;;5.90;89.70;;;;;;5063595;28;20224;-71
2021/04/26 06:12:29;;;;;;;5.30;4.35;;;6.00;89.90;;;;;;5066270;28;20207;-71
2021/04/26 06:14:55;;;;;;;9.43;4.60;;;6.10;89.80;;;;;;5065928;28;20204;-71
2021/04/26 06:17:21;;;;;;;7.65;4.68;;;6.10;88.80;;;;;;5066143;28;20239;-71
2021/04/26 06:19:48;;;;;;;5.05;4.47;;;6.20;88.70;;;;;;5063456;28;20217;-72
2021/04/26 06:22:14;;;;;;;5.22;4.20;;;6.30;88.90;;;;;;5064574;28;20196;-71
2021/04/26 06:24:41;;;;;;;8.23;4.90;;;6.40;88.70;;;;;;5066178;28;20577;-71
2021/04/26 06:27:07;;;;;;;10.15;4.55;;;6.40;87.60;;;;;;5066370;28;20294;-71
2021/04/26 06:29:33;;;;;;;5.88;4.40;;;6.40;87.80;;;;;;5063703;28;20220;-72
2021/04/26 06:32:00;;;;;;;7.90;4.50;;;6.50;88.70;;;;;;5065632;28;20207;-71
2021/04/26 06:34:26;;;;;;;5.85;4.00;;;6.60;88.20;;;;;;5066337;28;20204;-71
2021/04/26 06:36:52;;;;;;;5.13;4.35;;;6.70;88.90;;;;;;5066052;28;20192;-71
2021/04/26 06:39:19;;;;;;;6.60;4.53;;;6.70;87.60;;;;;;5064222;28;20224;-71
2021/04/26 06:41:46;;;;;;;10.02;4.93;;;6.80;87.30;;;;;;5065018;28;20219;-72
2021/04/26 06:44:12;;;;;;;5.85;4.78;;;6.80;87.00;;;;;;5065552;28;20832;-72
2021/04/26 06:46:38;;;;;;;6.75;4.43;;;6.90;87.40;;;;;;5067032;28;20235;-71
2021/04/26 06:49:05;;;;;;;6.38;4.70;;;6.90;86.30;;;;;;5067863;28;20232;-71
2021/04/26 06:51:31;;;;;;;10.20;5.15;;;7.00;86.60;;;;;;5067577;28;20656;-71
2021/04/26 06:53:57;;;;;;;7.63;4.80;;;7.10;87.10;;;;;;5069724;28;20273;-71
2021/04/26 06:56:23;;;;;;;7.00;5.15;;;7.20;86.80;;;;;;5069207;28;20211;-71
2021/04/26 06:58:50;;;;;;;10.13;4.55;;;7.30;86.50;;;;;;5067940;28;20208;-71
2021/04/26 07:01:17;;;;;;;5.95;4.53;;;7.40;86.00;;;;;;5068049;28;20619;-71
2021/04/26 07:03:43;;;;;;;6.32;5.07;;;7.50;86.20;;;;;;5066508;28;20605;-71
2021/04/26 07:06:09;;;;;;;7.40;4.72;;;7.60;86.30;;;;;;5069339;28;20223;-71
2021/04/26 07:08:35;;;;;;;6.60;4.80;;;7.70;86.10;;;;;;5068685;28;20224;-71
2021/04/26 07:11:02;;;;;;;5.60;4.20;;;7.80;85.60;;;;;;5065447;28;20215;-70
2021/04/26 07:13:28;;;;;;;8.02;4.60;;;8.00;85.20;;;;;;5068667;28;20205;-70
2021/04/26 07:15:55;;;;;;;6.10;4.80;;;8.10;87.70;;;;;;5068634;28;20743;-71
2021/04/26 07:18:21;;;;;;;5.40;4.50;;;8.20;85.40;;;;;;5069017;28;20222;-71
2021/04/26 07:20:47;;;;;;;6.80;4.55;;;8.30;85.10;;;;;;5066913;28;20672;-72
2021/04/26 07:23:13;;;;;;;6.25;4.13;;;8.40;85.60;;;;;;5069232;28;20200;-71
2021/04/26 07:25:40;;;;;;;5.65;4.78;;;8.50;84.70;;;;;;5069157;28;20269;-71
2021/04/26 07:28:06;;;;;;;7.63;4.65;;;8.60;84.80;;;;;;5068929;28;20212;-71
2021/04/26 07:30:32;;;;;;;6.72;4.85;;;8.70;84.70;;;;;;5065681;28;20225;-72
2021/04/26 07:32:59;;;;;;;4.63;4.15;;;8.70;84.90;;;;;;5068753;28;20207;-72
2021/04/26 07:35:26;;;;;;;6.13;4.80;;;8.80;82.70;;;;;;5068771;28;20210;-72
2021/04/26 07:37:52;;;;;;;4.60;4.07;;;8.90;83.70;;;;;;5067740;28;20625;-72
2021/04/26 07:40:18;;;;;;;7.65;4.35;;;8.90;83.60;;;;;;5065027;28;20228;-72
2021/04/26 07:42:45;;;;;;;6.57;4.95;;;9.00;81.80;;;;;;5064956;28;20205;-71
2021/04/26 07:45:12;;;;;;;4.88;4.18;;;9.10;82.80;;;;;;5070282;28;20223;-71
2021/04/26 07:47:38;;;;;;;6.90;4.47;;;9.30;83.90;;;;;;5065804;28;20234;-72
2021/04/26 07:50:07;;;;;;;5.47;4.85;;;9.30;84.50;;;;;;5066415;28;20224;-72
2021/04/26 07:52:34;;;;;;;5.70;4.32;;;9.40;81.90;;;;;;5068310;28;20204;-72
2021/04/26 07:55:00;;;;;;;6.75;4.60;;;9.50;82.00;;;;;;5065823;28;20212;-72
2021/04/26 07:57:27;;;;;;;6.03;4.65;;;9.70;82.40;;;;;;5066969;28;20240;-71
2021/04/26 07:59:53;;;;;;;5.43;4.85;;;9.70;80.00;;;;;;5064687;28;20702;-72
2021/04/26 08:02:20;;;;;;;6.47;4.65;;;9.80;79.40;;;;;;5067148;28;20203;-72
2021/04/26 08:04:46;;;;;;;6.15;4.22;;;9.80;82.60;;;;;;5071600;28;20224;-72
2021/04/26 08:07:14;;;;;;;6.22;4.60;;;10.00;81.40;;;;;;5071416;28;20277;-72
2021/04/26 08:09:40;;;;;;;7.85;5.10;;;10.20;81.90;;;;;;5065698;28;20248;-72
2021/04/26 08:12:07;;;;;;;6.47;5.40;;;10.50;80.30;;;;;;5066613;28;20263;-72
2021/04/26 08:14:33;;;;;;;5.40;4.70;;;10.60;80.00;;;;;;5066427;28;20458;-72
2021/04/26 08:17:00;;;;;;;6.93;4.80;;;10.80;79.40;;;;;;5066488;28;20234;-72
2021/04/26 08:19:26;;;;;;;7.40;5.00;;;10.90;77.60;;;;;;5065567;28;20224;-72
2021/04/26 08:21:53;;;;;;;8.07;4.73;;;11.10;78.10;;;;;;5067267;28;20454;-72
2021/04/26 08:24:21;;;;;;;5.83;4.80;;;11.40;77.80;;;;;;5064923;28;20467;-72
2021/04/26 08:26:47;;;;;;;4.87;4.23;;;11.70;77.90;;;;;;5066073;28;20525;-72
2021/04/26 08:29:14;;;;;;;6.53;5.30;;;12.00;76.80;;;;;;5066260;28;20490;-72
2021/04/26 08:31:40;;;;;;;7.30;4.30;;;12.20;74.80;;;;;;5066619;28;20836;-72
2021/04/26 08:34:06;;;;;;;4.97;4.30;;;12.50;74.00;;;;;;5067748;28;20465;-72
2021/04/26 08:36:32;;;;;;;4.87;4.07;;;12.70;75.00;;;;;;5068166;28;20869;-71
2021/04/26 08:38:59;;;;;;;8.13;4.40;;;13.00;74.50;;;;;;5065189;28;20489;-71
2021/04/26 08:41:27;;;;;;;6.93;5.20;;;13.40;74.90;;;;;;5065374;28;20458;-72
2021/04/26 08:43:53;;;;;;;5.33;4.20;;;14.00;73.30;;;;;;5065178;28;20516;-72
2021/04/26 08:46:19;;;;;;;5.00;4.50;;;14.30;71.00;;;;;;5062590;28;20972;-71
2021/04/26 08:48:45;;;;;;;5.03;4.50;;;14.60;70.50;;;;;;5067754;28;20478;-71
2021/04/26 08:51:12;;;;;;;6.03;4.30;;;14.90;67.70;;;;;;5068639;28;20469;-72
2021/04/26 08:53:38;;;;;;;5.20;4.27;;;15.40;69.20;;;;;;5069404;28;20462;-72
2021/04/26 08:56:06;;;;;;;4.37;3.97;;;15.70;68.50;;;;;;5068972;28;20756;-71
2021/04/26 08:58:33;;;;;;;6.63;4.60;;;15.90;66.50;;;;;;5069390;28;20815;-72
2021/04/26 09:01:00;;;;;;;6.13;4.57;;;16.20;66.10;;;;;;5068095;28;20458;-72
2021/04/26 09:03:34;;;;;;;6.77;5.33;;;16.40;65.40;;;;;;5069065;28;20462;-72
2021/04/26 09:06:00;;;;;;;6.73;4.07;;;16.50;66.50;;;;;;5068814;28;20486;-72
2021/04/26 09:08:28;;;;;;;4.90;4.50;;;16.90;66.00;;;;;;5068908;28;20454;-72
2021/04/26 09:11:00;;;;;;;7.40;5.13;;;17.20;65.70;;;;;;5068258;28;20470;-72
2021/04/26 09:13:32;;;;;;;6.43;4.60;;;17.50;64.30;;;;;;5069083;28;20462;-72
2021/04/26 09:16:02;;;;;;;6.33;4.43;;;18.00;67.10;;;;;;5069093;28;20541;-72
2021/04/26 09:18:50;;;;;;;7.57;4.87;;;18.00;64.60;;;;;;5087963;28;21004;-73
2021/04/26 09:21:19;;;;;;;7.30;5.27;;;18.40;65.50;;;;;;5081457;28;20469;-72
2021/04/26 09:23:46;;;;;;;9.87;6.40;;;18.90;61.90;;;;;;5069302;28;20462;-72
2021/04/26 09:26:28;;;;;;;5.80;4.47;;;18.90;61.60;;;;;;5068843;28;20478;-72
2021/04/26 09:29:15;;;;;;;5.23;4.53;;;19.40;62.30;;;;;;5068714;28;20482;-72
2021/04/26 09:31:43;;;;;;;6.47;4.60;;;19.90;60.10;;;;;;5068260;28;20993;-72
2021/04/26 09:34:31;;;;;;;5.50;4.40;;;20.30;60.20;;;;;;5068828;28;20458;-72
2021/04/26 09:37:22;;;;;;;5.60;5.10;;;20.30;60.30;;;;;;5068441;28;20458;-72
2021/04/26 09:40:07;;;;;;;5.30;4.80;;;20.40;57.10;;;;;;5048443;28;20509;-73
2021/04/26 09:42:42;;;;;;;5.83;4.50;;;20.30;59.30;;;;;;5068606;28;20462;-72
2021/04/26 09:45:26;;;;;;;10.80;5.30;;;20.40;58.90;;;;;;5068409;28;20945;-72
2021/04/26 09:48:10;;;;;;;5.90;4.57;;;20.50;57.90;;;;;;5066962;28;20450;-73
2021/04/26 09:50:50;;;;;;;5.60;5.10;;;20.80;59.20;;;;;;5062522;28;20556;-73
2021/04/26 09:53:16;;;;;;;10.37;5.40;;;21.50;57.00;;;;;;5066220;28;20464;-73
2021/04/26 09:55:42;;;;;;;6.97;4.20;;;21.80;55.40;;;;;;5065662;28;20459;-73
2021/04/26 09:58:09;;;;;;;6.03;5.30;;;21.70;56.20;;;;;;5066330;28;20463;-73
2021/04/26 10:00:36;;;;;;;7.10;5.43;;;21.80;57.60;;;;;;5065591;28;20486;-72
2021/04/26 10:03:03;;;;;;;6.00;4.40;;;22.00;55.40;;;;;;5066241;28;20467;-72
2021/04/26 10:05:30;;;;;;;5.23;4.70;;;22.40;56.60;;;;;;5065445;28;20519;-72
2021/04/26 10:07:57;;;;;;;5.60;4.17;;;22.50;55.90;;;;;;5065813;28;20458;-72
2021/04/26 10:10:24;;;;;;;4.90;4.40;;;22.30;56.30;;;;;;5065125;28;20506;-72
2021/04/26 10:12:50;;;;;;;6.17;4.90;;;22.60;57.60;;;;;;5065943;28;20464;-72
2021/04/26 10:15:24;;;;;;;4.77;4.37;;;22.50;56.80;;;;;;5066249;28;20476;-72
2021/04/26 10:17:50;;;;;;;6.13;4.57;;;22.80;54.80;;;;;;5066241;28;20840;-72
2021/04/26 10:20:32;;;;;;;5.23;4.73;;;22.70;57.00;;;;;;5065940;28;20478;-72
2021/04/26 10:22:59;;;;;;;5.87;4.23;;;22.70;56.30;;;;;;5067989;28;20464;-72
2021/04/26 10:25:38;;;;;;;5.70;4.60;;;23.00;55.20;;;;;;5070426;28;20470;-72
2021/04/26 10:28:29;;;;;;;5.83;5.00;;;23.20;54.10;;;;;;5067614;28;20462;-71
2021/04/26 10:31:05;;;;;;;7.47;4.40;;;23.60;52.20;;;;;;5068138;28;20461;-71
2021/04/26 10:34:06;;;;;;;5.00;3.87;;;23.70;51.50;;;;;;5069961;28;20457;-70
2021/04/26 10:36:44;;;;;;;5.53;4.67;;;23.70;52.60;;;;;;5069950;28;20455;-72
2021/04/26 10:39:13;;;;;;;5.73;4.83;;;23.90;54.30;;;;;;5069565;28;20484;-71
2021/04/26 10:41:58;;;;;;;4.70;4.30;;;23.90;54.00;;;;;;5069660;28;20504;-71
2021/04/26 10:44:50;;;;;;;6.40;3.90;;;24.00;54.80;;;;;;5068470;28;20468;-71
2021/04/26 10:47:19;;;;;;;6.27;4.20;;;24.70;53.50;;;;;;5070989;28;20521;-71
2021/04/26 10:49:47;;;;;;;5.43;4.53;;;24.10;51.10;;;;;;5071121;28;20482;-71
2021/04/26 10:52:46;;;;;;;5.27;4.77;;;23.70;52.30;;;;;;5069901;28;20510;-71
2021/04/26 10:55:53;;;;;;;5.87;4.70;;;23.70;52.30;;;;;;5024278;28;21071;-72
2021/04/26 10:58:26;;;;;;;5.80;4.57;;;23.40;51.10;;;;;;5066533;28;20450;-72
2021/04/26 11:00:53;;;;;;;6.63;4.83;;;23.50;51.80;;;;;;5069514;28;20458;-72
2021/04/26 11:03:39;;;;;;;4.60;4.10;;;23.50;52.80;;;;;;5069862;28;20549;-72
2021/04/26 11:06:27;;;;;;;5.40;4.40;;;23.60;51.10;;;;;;5068565;28;20486;-71
2021/04/26 11:14:38;;;;;;;9.63;4.73;;;24.00;52.20;;;;;;5055585;28;21221;-72
2021/04/26 11:17:08;;;;;;;5.67;4.30;;;23.80;52.20;;;;;;5068882;28;20455;-72
2021/04/26 11:20:08;;;;;;;5.93;4.70;;;23.90;51.00;;;;;;5069448;28;20470;-71
2021/04/26 11:22:35;;;;;;;4.97;4.37;;;23.90;51.60;;;;;;5069382;28;20469;-71
2021/04/26 11:25:04;;;;;;;5.10;4.50;;;24.20;52.60;;;;;;5068504;28;20454;-72
2021/04/26 11:27:35;;;;;;;6.60;4.70;;;24.90;51.40;;;;;;5068603;28;20501;-72
2021/04/26 11:30:22;;;;;;;5.53;4.13;;;25.00;51.80;;;;;;5068906;28;20482;-72
2021/04/26 11:33:09;;;;;;;7.20;5.03;;;25.00;50.10;;;;;;5067509;28;20481;-72
2021/04/26 11:35:52;;;;;;;6.67;4.90;;;24.90;50.50;;;;;;5068301;28;20473;-72
2021/04/26 11:38:21;;;;;;;4.20;3.80;;;25.40;49.80;;;;;;5050253;28;20462;-71
2021/04/26 11:40:53;;;;;;;7.97;4.40;;;25.80;50.20;;;;;;5066751;28;20508;-72
2021/04/26 11:43:19;;;;;;;4.30;3.90;;;25.70;48.10;;;;;;5068554;28;20462;-72
2021/04/26 11:45:48;;;;;;;5.93;4.27;;;25.10;50.20;;;;;;5067995;28;20463;-72
2021/04/26 11:48:21;;;;;;;5.57;4.17;;;25.20;49.20;;;;;;5068144;28;20513;-72
2021/04/26 11:50:48;;;;;;;4.73;3.87;;;25.50;49.80;;;;;;5066909;28;20485;-72
2021/04/26 11:53:32;;;;;;;4.23;3.80;;;25.40;48.40;;;;;;5068551;28;20478;-72
2021/04/26 11:56:12;;;;;;;5.03;3.73;;;25.30;47.90;;;;;;5067628;28;20451;-72
2021/04/26 11:58:38;;;;;;;7.20;4.43;;;25.40;50.00;;;;;;5067774;28;20580;-72
2021/04/26 12:01:09;;;;;;;3.97;3.57;;;25.60;47.30;;;;;;5067784;28;20516;-72
2021/04/26 12:03:55;;;;;;;6.50;4.07;;;25.30;48.80;;;;;;5066789;28;20466;-73
2021/04/26 12:06:21;;;;;;;5.60;3.90;;;24.70;46.00;;;;;;5067339;28;20890;-72
2021/04/26 12:08:48;;;;;;;4.97;3.30;;;24.10;45.50;;;;;;5149279;22;20482;-72
2021/04/26 12:11:17;;;;;;;4.00;3.70;;;23.80;47.60;;;;;;5089085;28;20463;-71
2021/04/26 12:13:43;;;;;;;5.03;4.50;;;24.10;47.80;;;;;;5090304;28;20459;-71
2021/04/26 12:16:09;;;;;;;4.83;4.30;;;23.60;46.70;;;;;;5090275;28;20450;-71
2021/04/26 12:18:38;;;;;;;5.13;3.60;;;23.30;48.80;;;;;;5090306;28;20473;-71
2021/04/26 12:21:05;;;;;;;4.27;3.47;;;23.30;49.20;;;;;;5090400;28;20830;-71
2021/04/26 12:23:35;;;;;;;5.90;4.20;;;24.00;50.50;;;;;;5090000;28;20473;-72
2021/04/26 12:26:01;;;;;;;6.33;5.00;;;24.50;49.10;;;;;;5090538;28;20996;-71
2021/04/26 12:28:41;;;;;;;4.77;4.10;;;24.60;50.10;;;;;;5090131;28;20548;-71
2021/04/26 12:31:18;;;;;;;4.00;3.70;;;24.90;51.30;;;;;;5089969;28;20976;-71
2021/04/26 12:33:45;;;;;;;4.63;4.07;;;25.00;49.70;;;;;;5090085;28;20465;-71
2021/04/26 12:36:12;;;;;;;5.37;4.37;;;25.10;48.90;;;;;;5090323;28;20458;-71
2021/04/26 12:38:38;;;;;;;7.50;4.33;;;24.90;49.90;;;;;;5090010;28;20482;-72
2021/04/26 12:41:06;;;;;;;4.40;3.73;;;25.40;49.90;;;;;;5089422;28;20519;-71
2021/04/26 12:43:35;;;;;;;5.70;3.80;;;26.00;49.80;;;;;;5089984;28;20458;-71
2021/04/26 12:46:05;;;;;;;7.00;3.67;;;26.00;46.80;;;;;;5089450;28;20478;-71
2021/04/26 12:48:32;;;;;;;4.40;3.90;;;25.80;47.40;;;;;;5089269;28;21207;-71
2021/04/26 12:50:59;;;;;;;3.73;3.43;;;25.80;48.10;;;;;;5089275;28;20520;-72
2021/04/26 12:53:31;;;;;;;5.13;4.00;;;25.80;46.50;;;;;;5089964;28;20958;-71
2021/04/26 12:56:11;;;;;;;7.63;3.30;;;25.80;46.70;;;;;;5089882;28;20463;-71
2021/04/26 12:58:40;;;;;;;4.90;3.13;;;25.50;45.70;;;;;;5089255;28;20495;-71
2021/04/26 13:01:17;;;;;;;4.00;3.23;;;24.80;46.00;;;;;;5089141;28;20459;-71
2021/04/26 13:03:52;;;;;;;4.30;3.23;;;24.60;48.60;;;;;;5089609;28;20496;-71
2021/04/26 13:06:22;;;;;;;5.13;3.70;;;24.60;45.00;;;;;;5089824;28;20484;-72
2021/04/26 13:08:50;;;;;;;7.47;4.60;;;24.70;46.80;;;;;;5089257;28;20486;-71